Time;durP1;ratioP1;P1;durP2;ratioP2;P2;SDS_P1;SDS_P2;PMS_P1;PMS_P2;Temp;Humidity;BMP_temperature;BMP_pressure;BME280_temperature;BME280_humidity;BME280_pressure;Samples;Min_cycle;Max_cycle;Signal;HPM_P1;HPM_P2
2024/01/28 00:02:14;;;;;;;16.92;8.98;;;1.40;99.90;;;;;;5051463;28;20470;-76
2024/01/28 00:04:39;;;;;;;19.20;10.50;;;1.40;99.90;;;;;;5051489;28;20269;-76
2024/01/28 00:07:05;;;;;;;17.37;10.10;;;1.40;99.90;;;;;;5069383;28;20264;-75
2024/01/28 00:09:30;;;;;;;14.00;9.03;;;1.40;99.90;;;;;;5051187;28;20202;-76
2024/01/28 00:11:56;;;;;;;14.97;8.33;;;1.40;99.90;;;;;;5069326;28;20190;-76
2024/01/28 00:14:22;;;;;;;14.20;8.60;;;1.40;99.90;;;;;;5069196;28;20681;-76
2024/01/28 00:16:48;;;;;;;20.67;8.37;;;1.40;99.90;;;;;;5069216;28;20179;-76
2024/01/28 00:19:14;;;;;;;12.32;6.88;;;1.50;99.90;;;;;;5069074;28;20195;-75
2024/01/28 00:21:40;;;;;;;16.70;6.90;;;1.50;99.90;;;;;;5069000;28;20746;-76
2024/01/28 00:24:06;;;;;;;15.43;7.20;;;1.60;99.90;;;;;;5069437;28;20177;-73
2024/01/28 00:26:41;;;;;;;14.40;7.57;;;1.60;99.90;;;;;;5050902;28;20180;-74
2024/01/28 00:29:07;;;;;;;16.23;8.13;;;1.60;99.90;;;;;;5068987;28;20207;-75
2024/01/28 00:31:34;;;;;;;22.20;8.50;;;1.50;99.90;;;;;;5068862;28;20200;-75
2024/01/28 00:34:00;;;;;;;16.85;8.48;;;1.40;99.90;;;;;;5068841;28;20187;-75
2024/01/28 00:36:26;;;;;;;14.60;9.85;;;1.40;99.90;;;;;;5050575;28;20274;-77
2024/01/28 00:38:55;;;;;;;19.10;10.32;;;1.30;99.90;;;;;;5068799;28;20207;-76
2024/01/28 00:41:26;;;;;;;20.15;9.68;;;1.30;99.90;;;;;;5068507;28;20549;-76
2024/01/28 00:43:52;;;;;;;24.92;10.13;;;1.30;99.90;;;;;;5068621;28;20179;-77
2024/01/28 00:46:20;;;;;;;19.83;9.53;;;1.30;99.90;;;;;;5068759;28;20561;-77
2024/01/28 00:48:46;;;;;;;14.70;8.55;;;1.30;99.90;;;;;;5068369;28;20445;-76
2024/01/28 00:51:12;;;;;;;20.10;9.32;;;1.40;99.90;;;;;;5068614;28;20184;-77
2024/01/28 00:53:38;;;;;;;17.17;9.10;;;1.20;99.90;;;;;;5068769;28;20238;-76
2024/01/28 00:56:04;;;;;;;12.37;7.80;;;1.40;99.90;;;;;;5068589;28;20598;-76
2024/01/28 00:58:29;;;;;;;14.13;7.53;;;1.30;99.90;;;;;;5050416;28;20214;-76
2024/01/28 01:00:55;;;;;;;16.10;8.60;;;1.50;99.90;;;;;;5050631;28;20196;-77
2024/01/28 01:03:21;;;;;;;10.90;8.27;;;1.30;99.90;;;;;;5068631;28;20279;-77
2024/01/28 01:05:46;;;;;;;16.10;7.80;;;1.30;99.90;;;;;;5068329;28;20676;-77
2024/01/28 01:08:12;;;;;;;17.37;8.73;;;1.30;99.90;;;;;;5033771;28;20203;-77
2024/01/28 01:10:38;;;;;;;13.20;6.80;;;1.20;99.90;;;;;;5050112;28;20196;-76
2024/01/28 01:13:04;;;;;;;13.47;7.70;;;1.20;99.90;;;;;;5050237;28;20179;-77
2024/01/28 01:15:29;;;;;;;16.13;7.87;;;1.20;99.90;;;;;;5050220;28;20179;-77
2024/01/28 01:17:56;;;;;;;21.17;7.87;;;1.10;99.90;;;;;;5033483;28;20201;-77
2024/01/28 01:20:22;;;;;;;13.43;7.53;;;1.10;99.90;;;;;;5068683;28;20185;-77
2024/01/28 01:22:48;;;;;;;12.52;6.78;;;1.10;99.90;;;;;;5050024;28;20313;-78
2024/01/28 01:25:14;;;;;;;14.43;7.57;;;1.10;99.90;;;;;;5068156;28;20267;-78
2024/01/28 01:27:40;;;;;;;11.07;7.75;;;1.00;99.90;;;;;;5068250;28;20179;-77
2024/01/28 01:30:07;;;;;;;18.92;8.23;;;1.00;99.90;;;;;;5050205;28;20249;-77
2024/01/28 01:32:32;;;;;;;19.15;8.55;;;1.00;99.90;;;;;;5068043;28;20181;-77
2024/01/28 01:34:58;;;;;;;13.13;7.70;;;1.00;99.90;;;;;;5049946;28;20233;-77
2024/01/28 01:37:24;;;;;;;12.03;7.73;;;1.00;99.90;;;;;;5034992;28;20233;-77
2024/01/28 01:39:49;;;;;;;13.10;8.20;;;0.90;99.90;;;;;;5072528;28;20289;-77
2024/01/28 01:42:15;;;;;;;12.03;7.13;;;0.90;99.90;;;;;;5053845;28;20226;-77
2024/01/28 01:44:40;;;;;;;9.40;7.23;;;0.90;99.90;;;;;;5072221;28;20207;-75
2024/01/28 01:47:06;;;;;;;12.73;7.30;;;0.90;99.90;;;;;;5072350;28;20214;-75
2024/01/28 01:49:32;;;;;;;16.03;8.00;;;0.80;99.90;;;;;;5072025;28;20713;-75
2024/01/28 01:51:58;;;;;;;12.63;8.00;;;0.70;99.90;;;;;;5054206;28;21029;-78
2024/01/28 01:54:24;;;;;;;18.73;8.40;;;0.60;99.90;;;;;;5072026;28;20179;-78
2024/01/28 01:56:50;;;;;;;16.73;8.63;;;0.60;99.90;;;;;;5054138;28;20418;-78
2024/01/28 01:59:15;;;;;;;18.40;9.00;;;0.60;99.90;;;;;;5071984;28;20705;-78
2024/01/28 02:01:43;;;;;;;15.57;8.10;;;0.70;99.90;;;;;;5072300;28;20211;-78
2024/01/28 02:04:09;;;;;;;19.73;10.43;;;0.70;99.90;;;;;;5072202;28;20193;-78
2024/01/28 02:06:34;;;;;;;14.30;8.40;;;0.70;99.90;;;;;;5053576;28;20187;-78
2024/01/28 02:09:00;;;;;;;15.80;8.80;;;0.80;99.90;;;;;;5071975;28;20438;-77
2024/01/28 02:11:26;;;;;;;18.40;9.10;;;0.80;99.90;;;;;;5053305;28;20191;-77
2024/01/28 02:13:52;;;;;;;19.27;9.90;;;0.80;99.90;;;;;;5053333;28;20195;-77
2024/01/28 02:16:18;;;;;;;17.35;10.30;;;0.70;99.90;;;;;;5071372;28;20193;-77
2024/01/28 02:18:44;;;;;;;17.70;10.30;;;0.70;99.90;;;;;;5071498;28;20208;-77
2024/01/28 02:21:09;;;;;;;17.00;9.90;;;0.70;99.90;;;;;;5071303;28;20773;-77
2024/01/28 02:23:35;;;;;;;14.10;8.67;;;0.60;99.90;;;;;;5071404;28;20183;-76
2024/01/28 02:26:00;;;;;;;15.30;9.10;;;0.50;99.90;;;;;;5071076;28;20188;-75
2024/01/28 02:28:26;;;;;;;24.50;11.50;;;0.60;99.90;;;;;;5071150;28;20205;-75
2024/01/28 02:30:51;;;;;;;19.10;9.93;;;0.60;99.90;;;;;;5053354;28;20179;-75
2024/01/28 02:33:17;;;;;;;25.33;10.90;;;0.50;99.90;;;;;;5071255;28;20684;-75
2024/01/28 02:35:42;;;;;;;15.87;9.00;;;0.40;99.90;;;;;;5070962;28;20189;-75
2024/01/28 02:38:08;;;;;;;20.77;10.50;;;0.50;99.90;;;;;;5070989;28;20247;-75
2024/01/28 02:40:34;;;;;;;16.80;10.10;;;0.40;99.90;;;;;;5053191;28;20237;-75
2024/01/28 02:43:00;;;;;;;15.10;9.30;;;0.40;99.90;;;;;;5071278;28;20239;-75
2024/01/28 02:45:25;;;;;;;18.50;10.88;;;0.40;99.90;;;;;;5053139;28;20572;-75
2024/01/28 02:47:51;;;;;;;13.00;9.60;;;0.40;99.90;;;;;;5036393;28;20294;-75
2024/01/28 02:50:17;;;;;;;15.77;9.03;;;0.40;99.90;;;;;;5053397;28;20191;-75
2024/01/28 02:52:42;;;;;;;18.47;9.63;;;0.40;99.90;;;;;;5020602;28;20220;-75
2024/01/28 02:55:08;;;;;;;15.83;9.50;;;0.40;99.90;;;;;;5053396;28;20487;-75
2024/01/28 02:57:34;;;;;;;14.60;9.93;;;0.50;99.90;;;;;;5071088;28;20528;-75
2024/01/28 02:59:59;;;;;;;21.40;8.70;;;0.50;99.90;;;;;;5071619;28;20195;-76
2024/01/28 03:02:27;;;;;;;19.20;9.70;;;0.60;99.90;;;;;;5071066;28;20587;-76
2024/01/28 03:04:52;;;;;;;14.95;9.77;;;0.60;99.90;;;;;;5071321;28;20178;-78
2024/01/28 03:07:18;;;;;;;17.00;9.63;;;0.60;99.90;;;;;;5052776;28;20546;-75
2024/01/28 03:09:43;;;;;;;19.80;9.67;;;0.40;99.90;;;;;;5071507;28;20203;-76
2024/01/28 03:12:09;;;;;;;17.43;8.83;;;0.20;99.90;;;;;;5070948;28;20250;-77
2024/01/28 03:14:35;;;;;;;15.93;8.60;;;0.10;99.90;;;;;;5052998;28;20289;-74
2024/01/28 03:17:01;;;;;;;17.90;9.07;;;0.00;99.90;;;;;;5052547;28;20187;-76
2024/01/28 03:19:26;;;;;;;16.98;9.38;;;-0.10;99.90;;;;;;5053109;28;20617;-77
2024/01/28 03:21:52;;;;;;;15.80;8.80;;;-0.10;99.90;;;;;;5053058;28;20209;-73
2024/01/28 03:24:18;;;;;;;20.53;9.20;;;0.00;99.90;;;;;;5070982;28;20184;-74
2024/01/28 03:26:43;;;;;;;18.33;9.50;;;0.00;99.90;;;;;;5053319;28;20294;-73
2024/01/28 03:29:09;;;;;;;14.73;8.83;;;-0.10;99.90;;;;;;5071548;28;20203;-74
2024/01/28 03:31:34;;;;;;;16.70;9.70;;;-0.10;99.90;;;;;;5071373;28;20191;-73
2024/01/28 03:34:00;;;;;;;18.37;10.13;;;-0.10;99.90;;;;;;5071391;28;20219;-73
2024/01/28 03:36:26;;;;;;;17.40;10.03;;;-0.10;99.90;;;;;;5053194;28;20425;-74
2024/01/28 03:38:53;;;;;;;14.10;9.30;;;-0.10;99.90;;;;;;5071121;28;20645;-73
2024/01/28 03:41:19;;;;;;;20.35;9.55;;;-0.10;99.90;;;;;;5036576;28;20214;-75
2024/01/28 03:43:46;;;;;;;16.33;8.97;;;-0.10;99.90;;;;;;5071270;28;20267;-74
2024/01/28 03:46:12;;;;;;;15.63;9.00;;;-0.10;99.90;;;;;;5070786;28;20695;-74
2024/01/28 03:48:38;;;;;;;15.30;9.93;;;-0.10;99.90;;;;;;5070616;28;20677;-74
2024/01/28 03:51:04;;;;;;;22.07;9.70;;;-0.20;99.90;;;;;;5070416;28;20194;-75
2024/01/28 03:53:29;;;;;;;15.97;9.43;;;-0.20;99.90;;;;;;5070329;28;20189;-75
2024/01/28 03:55:55;;;;;;;12.23;7.50;;;-0.20;99.90;;;;;;5052203;28;20419;-75
2024/01/28 03:58:21;;;;;;;16.90;9.27;;;-0.10;99.90;;;;;;5070125;28;20238;-75
2024/01/28 04:00:47;;;;;;;13.95;8.77;;;-0.10;99.90;;;;;;5069380;28;20677;-76
2024/01/28 04:03:13;;;;;;;18.10;9.00;;;0.00;99.90;;;;;;5052044;28;20190;-76
2024/01/28 04:05:38;;;;;;;13.37;8.87;;;0.00;99.90;;;;;;5069828;28;20859;-75
2024/01/28 04:08:08;;;;;;;16.43;9.17;;;0.00;99.90;;;;;;5069649;28;20447;-76
2024/01/28 04:10:33;;;;;;;12.13;8.65;;;0.00;99.90;;;;;;5069466;28;20657;-74
2024/01/28 04:12:59;;;;;;;15.43;9.10;;;0.10;99.90;;;;;;5051609;28;20310;-74
2024/01/28 04:15:25;;;;;;;15.43;9.30;;;0.20;99.90;;;;;;5069444;28;20270;-75
2024/01/28 04:17:50;;;;;;;15.20;8.93;;;0.30;99.90;;;;;;5051444;28;20204;-74
2024/01/28 04:20:16;;;;;;;14.67;8.80;;;0.30;99.90;;;;;;5069410;28;20177;-74
2024/01/28 04:22:42;;;;;;;14.57;9.03;;;0.40;99.90;;;;;;5069421;28;20221;-75
2024/01/28 04:25:07;;;;;;;19.33;9.80;;;0.40;99.90;;;;;;5069612;28;20175;-72
2024/01/28 04:27:33;;;;;;;12.60;8.40;;;0.40;99.90;;;;;;5069631;28;20791;-75
2024/01/28 04:29:59;;;;;;;17.50;8.83;;;0.30;99.90;;;;;;5069483;28;20560;-73
2024/01/28 04:32:24;;;;;;;16.40;8.93;;;0.30;99.90;;;;;;5051736;28;20193;-73
2024/01/28 04:34:50;;;;;;;15.57;9.23;;;0.30;99.90;;;;;;5051679;28;20175;-75
2024/01/28 04:37:15;;;;;;;15.60;9.57;;;0.20;99.90;;;;;;5035113;28;20244;-74
2024/01/28 04:39:41;;;;;;;15.90;10.53;;;0.20;99.90;;;;;;5051831;28;20219;-74
2024/01/28 04:42:07;;;;;;;19.73;9.47;;;0.20;99.90;;;;;;5035534;28;20215;-74
2024/01/28 04:44:32;;;;;;;16.67;10.57;;;0.20;99.90;;;;;;5070055;28;20293;-74
2024/01/28 04:46:58;;;;;;;15.97;9.33;;;0.10;99.90;;;;;;5052049;28;20175;-73
2024/01/28 04:49:24;;;;;;;16.53;10.00;;;0.00;99.90;;;;;;5069846;28;20270;-74
2024/01/28 04:51:50;;;;;;;19.13;10.18;;;-0.10;99.90;;;;;;5069786;28;20183;-73
2024/01/28 04:54:16;;;;;;;18.60;9.57;;;-0.10;99.90;;;;;;5069653;28;20582;-75
2024/01/28 04:56:42;;;;;;;15.02;10.20;;;-0.10;99.90;;;;;;5069929;28;20175;-75
2024/01/28 04:59:08;;;;;;;13.82;9.20;;;-0.20;99.90;;;;;;5069344;28;20257;-76
2024/01/28 05:01:34;;;;;;;17.43;9.90;;;-0.20;99.90;;;;;;5069373;28;20195;-75
2024/01/28 05:04:04;;;;;;;19.00;10.75;;;-0.20;99.90;;;;;;5069138;28;20178;-75
2024/01/28 05:06:36;;;;;;;17.40;9.40;;;-0.20;99.90;;;;;;5069178;28;20215;-75
2024/01/28 05:09:06;;;;;;;19.33;10.32;;;-0.20;99.90;;;;;;5068934;28;20197;-75
2024/01/28 05:11:31;;;;;;;21.63;12.02;;;-0.20;99.90;;;;;;5067753;28;20577;-76
2024/01/28 05:13:58;;;;;;;19.47;10.13;;;-0.30;99.90;;;;;;5068940;28;20186;-76
2024/01/28 05:16:24;;;;;;;16.35;10.23;;;-0.30;99.90;;;;;;5068881;28;20183;-76
2024/01/28 05:18:51;;;;;;;19.88;10.32;;;-0.30;99.90;;;;;;5068954;28;20233;-74
2024/01/28 05:21:18;;;;;;;19.77;12.05;;;-0.40;99.90;;;;;;5068495;28;20205;-74
2024/01/28 05:23:44;;;;;;;16.70;11.00;;;-0.40;99.90;;;;;;5068608;28;20175;-75
2024/01/28 05:26:10;;;;;;;15.63;9.63;;;-0.30;99.90;;;;;;5068459;28;20645;-74
2024/01/28 05:28:35;;;;;;;14.73;9.77;;;-0.50;99.90;;;;;;5068429;28;20236;-74
2024/01/28 05:31:01;;;;;;;17.10;10.50;;;-0.50;99.90;;;;;;5068759;28;20181;-75
2024/01/28 05:33:26;;;;;;;16.70;10.57;;;-0.50;99.90;;;;;;5068488;28;20258;-74
2024/01/28 05:35:52;;;;;;;17.87;10.50;;;-0.50;99.90;;;;;;5069353;28;20555;-74
2024/01/28 05:38:17;;;;;;;16.00;9.47;;;-0.60;99.90;;;;;;5069198;28;20272;-74
2024/01/28 05:40:44;;;;;;;14.23;9.03;;;-0.60;99.90;;;;;;5068739;28;20183;-74
2024/01/28 05:43:09;;;;;;;16.53;9.90;;;-0.70;99.90;;;;;;5068344;28;20547;-74
2024/01/28 05:45:35;;;;;;;15.90;9.43;;;-0.70;99.90;;;;;;5050287;28;20256;-76
2024/01/28 05:48:03;;;;;;;15.17;9.63;;;-0.70;99.90;;;;;;5050482;28;20231;-76
2024/01/28 05:50:29;;;;;;;25.20;13.77;;;-0.80;99.90;;;;;;5068384;28;20190;-75
2024/01/28 05:52:55;;;;;;;22.13;10.15;;;-0.80;99.90;;;;;;5068318;28;20218;-75
2024/01/28 05:55:21;;;;;;;26.67;10.67;;;-0.80;99.90;;;;;;5068192;28;20219;-74
2024/01/28 05:57:46;;;;;;;19.00;10.60;;;-0.80;99.90;;;;;;5068187;28;20209;-74
2024/01/28 06:00:13;;;;;;;17.20;9.33;;;-0.80;99.90;;;;;;5068220;28;20821;-74
2024/01/28 06:02:38;;;;;;;17.30;11.07;;;-0.80;99.90;;;;;;5068305;28;20206;-73
2024/01/28 06:05:04;;;;;;;17.97;11.37;;;-0.80;99.90;;;;;;5068093;28;20183;-73
2024/01/28 06:07:30;;;;;;;14.98;10.50;;;-0.80;99.90;;;;;;5067865;28;20179;-73
2024/01/28 06:09:56;;;;;;;16.27;11.20;;;-0.80;99.90;;;;;;5067970;28;20179;-73
2024/01/28 06:12:22;;;;;;;14.63;9.80;;;-0.80;99.90;;;;;;5050198;28;20213;-73
2024/01/28 06:14:47;;;;;;;15.47;10.33;;;-0.90;99.90;;;;;;5068091;28;20171;-75
2024/01/28 06:17:15;;;;;;;17.47;10.17;;;-0.90;99.90;;;;;;5067864;28;20179;-75
2024/01/28 06:19:40;;;;;;;22.15;12.23;;;-0.90;99.90;;;;;;5068000;28;20779;-76
2024/01/28 06:22:06;;;;;;;16.17;10.70;;;-0.90;99.90;;;;;;5068482;28;20203;-76
2024/01/28 06:24:33;;;;;;;15.00;10.33;;;-0.90;99.90;;;;;;5071530;28;20247;-75
2024/01/28 06:26:58;;;;;;;12.65;9.07;;;-0.90;99.90;;;;;;5071551;28;20187;-75
2024/01/28 06:29:24;;;;;;;17.03;9.83;;;-0.90;99.90;;;;;;5071622;28;20199;-75
2024/01/28 06:31:50;;;;;;;30.57;15.30;;;-0.90;99.90;;;;;;5071656;28;20662;-75
2024/01/28 06:34:16;;;;;;;33.97;16.63;;;-0.90;99.90;;;;;;5053503;28;20555;-75
2024/01/28 06:36:42;;;;;;;26.98;13.90;;;-0.90;99.90;;;;;;5071081;28;20276;-75
2024/01/28 06:39:08;;;;;;;17.07;11.77;;;-0.90;99.90;;;;;;5071182;28;20230;-75
2024/01/28 06:41:34;;;;;;;15.68;11.10;;;-1.00;99.90;;;;;;5071351;28;20467;-75
2024/01/28 06:44:02;;;;;;;18.23;12.10;;;-1.00;99.90;;;;;;5071265;28;20257;-76
2024/01/28 06:46:28;;;;;;;14.70;10.52;;;-1.00;99.90;;;;;;5036574;28;20491;-75
2024/01/28 06:48:53;;;;;;;17.90;10.87;;;-1.00;99.90;;;;;;5071138;28;20196;-75
2024/01/28 06:51:19;;;;;;;19.93;10.53;;;-1.00;99.90;;;;;;5053653;28;20191;-72
2024/01/28 06:53:45;;;;;;;20.30;11.63;;;-0.90;99.90;;;;;;5052971;28;20277;-73
2024/01/28 06:56:11;;;;;;;18.52;10.95;;;-0.90;99.90;;;;;;5071414;28;20271;-73
2024/01/28 06:58:37;;;;;;;19.37;11.23;;;-0.90;99.90;;;;;;5071442;28;20636;-73
2024/01/28 07:01:03;;;;;;;18.93;12.13;;;-0.90;99.90;;;;;;5052578;28;20183;-73
2024/01/28 07:03:29;;;;;;;18.10;12.20;;;-0.90;99.90;;;;;;5070956;28;20180;-73
2024/01/28 07:05:54;;;;;;;19.17;10.20;;;-0.90;99.90;;;;;;5070867;28;21018;-73
2024/01/28 07:08:20;;;;;;;14.47;10.10;;;-0.90;99.90;;;;;;5070735;28;20221;-73
2024/01/28 07:10:46;;;;;;;19.10;11.10;;;-0.90;99.90;;;;;;5070843;28;20282;-73
2024/01/28 07:13:12;;;;;;;18.50;10.57;;;-1.00;99.90;;;;;;5070661;28;20336;-73
2024/01/28 07:15:37;;;;;;;18.90;11.00;;;-1.10;99.90;;;;;;5070878;28;20416;-73
2024/01/28 07:18:03;;;;;;;16.33;10.50;;;-1.00;99.90;;;;;;5052535;28;20590;-73
2024/01/28 07:20:28;;;;;;;23.20;10.70;;;-1.00;99.90;;;;;;5070613;28;20536;-73
2024/01/28 07:22:54;;;;;;;18.10;10.80;;;-1.00;99.90;;;;;;5070616;28;20211;-71
2024/01/28 07:25:20;;;;;;;21.50;10.53;;;-1.00;99.90;;;;;;5070710;28;20699;-73
2024/01/28 07:27:46;;;;;;;21.80;11.17;;;-0.90;99.90;;;;;;5070332;28;20329;-73
2024/01/28 07:30:12;;;;;;;15.73;10.30;;;-0.80;99.90;;;;;;5070982;28;20180;-73
2024/01/28 07:32:38;;;;;;;16.10;9.43;;;-0.70;99.90;;;;;;5070335;28;20193;-73
2024/01/28 07:35:04;;;;;;;12.40;8.80;;;-0.60;99.90;;;;;;5069419;28;20426;-73
2024/01/28 07:37:30;;;;;;;14.85;9.73;;;-0.60;99.90;;;;;;5070097;28;20196;-73
2024/01/28 07:39:55;;;;;;;14.30;8.50;;;-0.60;99.90;;;;;;5070506;28;20195;-73
2024/01/28 07:42:21;;;;;;;12.90;10.03;;;-0.50;99.90;;;;;;5070348;28;20282;-73
2024/01/28 07:44:46;;;;;;;12.80;9.37;;;-0.30;99.90;;;;;;5070385;28;20733;-73
2024/01/28 07:47:12;;;;;;;13.40;8.63;;;0.00;99.90;;;;;;5070343;28;20185;-74
2024/01/28 07:49:37;;;;;;;13.17;9.60;;;0.30;99.90;;;;;;5070275;28;20207;-73
2024/01/28 07:52:03;;;;;;;17.07;10.33;;;0.70;99.90;;;;;;5070609;28;20305;-73
2024/01/28 07:54:29;;;;;;;14.37;9.70;;;1.20;99.90;;;;;;5070422;28;20199;-73
2024/01/28 07:56:55;;;;;;;14.03;8.77;;;1.50;99.90;;;;;;5052231;28;20190;-73
2024/01/28 07:59:21;;;;;;;12.15;8.80;;;1.70;99.90;;;;;;5070623;28;20196;-74
2024/01/28 08:01:47;;;;;;;18.50;9.53;;;2.20;99.90;;;;;;5052109;28;20248;-73
2024/01/28 08:04:12;;;;;;;14.30;9.05;;;2.30;99.90;;;;;;5070336;28;20421;-73
2024/01/28 08:06:38;;;;;;;12.50;7.90;;;2.30;99.90;;;;;;5052161;28;20551;-73
2024/01/28 08:09:04;;;;;;;11.57;9.17;;;2.30;99.90;;;;;;5070126;28;20213;-73
2024/01/28 08:11:30;;;;;;;11.40;8.50;;;2.50;99.90;;;;;;5070125;28;20210;-73
2024/01/28 08:13:55;;;;;;;17.67;10.40;;;2.60;99.90;;;;;;5070114;28;20358;-73
2024/01/28 08:16:21;;;;;;;17.20;11.30;;;2.70;99.90;;;;;;5070078;28;20181;-73
2024/01/28 08:18:47;;;;;;;15.60;10.27;;;2.90;99.90;;;;;;5070424;28;20199;-72
2024/01/28 08:21:13;;;;;;;15.55;9.77;;;3.10;99.90;;;;;;5069900;28;20177;-73
2024/01/28 08:23:38;;;;;;;18.43;10.73;;;3.40;99.90;;;;;;5069766;28;20267;-73
2024/01/28 08:26:04;;;;;;;18.93;10.90;;;3.80;99.90;;;;;;5069481;28;20183;-72
2024/01/28 08:28:29;;;;;;;16.30;10.80;;;4.50;99.90;;;;;;5051682;28;20293;-72
2024/01/28 08:30:56;;;;;;;16.53;11.13;;;5.40;99.90;;;;;;5069588;28;20185;-73
2024/01/28 08:33:21;;;;;;;14.67;10.63;;;6.70;99.90;;;;;;5069951;28;20179;-73
2024/01/28 08:35:47;;;;;;;18.63;12.87;;;8.10;99.90;;;;;;5052256;28;20444;-73
2024/01/28 08:38:12;;;;;;;21.37;14.27;;;9.50;99.90;;;;;;5070286;28;20268;-73
2024/01/28 08:40:38;;;;;;;24.87;16.37;;;10.50;99.90;;;;;;5070141;28;20188;-73
2024/01/28 08:43:07;;;;;;;18.33;13.17;;;11.60;99.90;;;;;;5070063;28;20215;-73
2024/01/28 08:45:32;;;;;;;44.67;21.23;;;12.30;99.90;;;;;;5069717;28;20667;-73
2024/01/28 08:47:58;;;;;;;18.90;12.10;;;13.20;96.50;;;;;;5070238;28;20445;-73
2024/01/28 08:50:24;;;;;;;14.40;10.83;;;13.70;94.60;;;;;;5070357;28;20266;-71
2024/01/28 08:52:51;;;;;;;12.10;9.40;;;14.00;92.50;;;;;;5035704;28;20631;-72
2024/01/28 08:55:17;;;;;;;15.53;10.27;;;14.40;91.60;;;;;;5070299;28;20172;-73
2024/01/28 08:57:43;;;;;;;14.53;11.27;;;14.90;90.60;;;;;;5069385;28;20511;-73
2024/01/28 09:00:11;;;;;;;11.37;9.57;;;15.50;88.30;;;;;;5069584;28;20214;-73
2024/01/28 09:02:38;;;;;;;13.07;9.37;;;16.00;87.50;;;;;;5069477;28;20672;-73
2024/01/28 09:05:04;;;;;;;11.30;8.37;;;16.70;83.90;;;;;;5069457;28;20501;-74
2024/01/28 09:07:30;;;;;;;9.80;8.60;;;17.20;81.70;;;;;;5068591;28;20448;-74
2024/01/28 09:09:55;;;;;;;10.40;8.10;;;17.60;79.40;;;;;;5067802;28;20478;-74
2024/01/28 09:12:21;;;;;;;12.30;8.87;;;17.80;78.80;;;;;;5067865;28;20221;-74
2024/01/28 09:14:46;;;;;;;9.07;8.13;;;17.80;75.70;;;;;;5068376;28;20183;-74
2024/01/28 09:17:12;;;;;;;8.60;7.47;;;18.20;75.00;;;;;;5068908;28;20254;-74
2024/01/28 09:19:37;;;;;;;11.30;7.93;;;18.80;73.30;;;;;;5050005;28;20211;-74
2024/01/28 09:22:05;;;;;;;12.10;8.60;;;19.20;71.80;;;;;;5049709;28;20198;-74
2024/01/28 09:24:31;;;;;;;13.07;9.73;;;19.30;70.20;;;;;;5067640;28;20175;-74
2024/01/28 09:26:58;;;;;;;15.97;8.80;;;19.50;68.10;;;;;;5067675;28;20426;-74
2024/01/28 09:29:25;;;;;;;12.50;9.43;;;19.30;67.50;;;;;;5049614;28;20228;-74
2024/01/28 09:31:51;;;;;;;12.53;9.40;;;19.70;66.90;;;;;;5067749;28;20544;-74
2024/01/28 09:34:17;;;;;;;11.10;9.70;;;19.70;66.00;;;;;;5067667;28;20807;-75
2024/01/28 09:36:43;;;;;;;13.30;9.60;;;18.50;64.80;;;;;;5067507;28;20790;-74
2024/01/28 09:39:11;;;;;;;10.83;8.77;;;16.90;66.90;;;;;;5067775;28;20440;-73
2024/01/28 09:41:46;;;;;;;10.57;8.20;;;15.30;70.20;;;;;;5067641;28;20937;-74
2024/01/28 09:44:12;;;;;;;10.70;7.27;;;14.20;74.40;;;;;;5067848;28;20416;-75
2024/01/28 09:46:38;;;;;;;13.13;9.20;;;13.80;78.20;;;;;;5067525;28;20490;-74
2024/01/28 09:49:06;;;;;;;14.70;11.77;;;14.80;79.80;;;;;;5049271;28;20610;-74
2024/01/28 09:51:31;;;;;;;12.40;10.57;;;16.10;79.00;;;;;;5067521;28;20468;-73
2024/01/28 09:53:57;;;;;;;14.07;10.23;;;16.90;74.50;;;;;;5067531;28;20423;-74
2024/01/28 09:56:23;;;;;;;10.73;8.87;;;17.70;73.50;;;;;;5067666;28;20666;-73
2024/01/28 09:58:49;;;;;;;14.77;10.10;;;18.40;72.50;;;;;;5069997;28;20253;-74
2024/01/28 10:01:15;;;;;;;14.00;10.10;;;18.70;70.20;;;;;;5053102;28;20183;-74
2024/01/28 10:03:41;;;;;;;17.47;12.07;;;19.30;69.00;;;;;;5071343;28;20426;-74
2024/01/28 10:06:07;;;;;;;15.77;10.30;;;19.60;66.80;;;;;;5071316;28;20183;-74
2024/01/28 10:08:33;;;;;;;15.27;10.13;;;19.80;66.70;;;;;;5071159;28;20439;-74
2024/01/28 10:11:01;;;;;;;12.90;9.70;;;20.00;66.50;;;;;;5071083;28;20188;-74
2024/01/28 10:13:27;;;;;;;14.73;9.70;;;20.20;66.20;;;;;;5071183;28;20175;-74
2024/01/28 10:15:57;;;;;;;12.20;9.57;;;20.30;66.60;;;;;;5071257;28;20432;-74
2024/01/28 10:18:23;;;;;;;10.63;8.63;;;20.20;66.30;;;;;;5052920;28;20866;-74
2024/01/28 10:20:49;;;;;;;9.50;7.90;;;19.80;66.20;;;;;;5071199;28;20479;-73
2024/01/28 10:23:16;;;;;;;10.10;7.93;;;19.60;67.10;;;;;;5071013;28;20444;-75
2024/01/28 10:25:43;;;;;;;8.47;6.43;;;19.40;67.30;;;;;;5052581;28;20180;-74
2024/01/28 10:28:08;;;;;;;10.17;7.57;;;19.60;68.10;;;;;;5070818;28;20433;-73
2024/01/28 10:30:34;;;;;;;21.23;15.47;;;19.70;67.00;;;;;;5070600;28;20793;-73
2024/01/28 10:33:00;;;;;;;17.80;13.73;;;19.30;66.60;;;;;;5052342;28;20205;-73
2024/01/28 10:35:26;;;;;;;18.03;13.07;;;19.00;66.10;;;;;;5070527;28;20936;-73
2024/01/28 10:37:55;;;;;;;16.50;12.73;;;19.20;66.70;;;;;;5070149;28;20296;-74
2024/01/28 10:40:26;;;;;;;15.60;12.37;;;19.30;66.10;;;;;;5070637;28;21240;-74
2024/01/28 10:42:56;;;;;;;19.30;12.00;;;19.40;65.00;;;;;;5052584;28;20957;-74
2024/01/28 10:45:23;;;;;;;17.37;11.97;;;19.10;65.50;;;;;;5052148;28;20481;-74
2024/01/28 10:47:59;;;;;;;16.13;12.20;;;19.30;66.20;;;;;;5052299;28;20421;-74
2024/01/28 10:50:28;;;;;;;17.40;11.23;;;18.90;66.90;;;;;;5070335;28;20427;-74
2024/01/28 10:52:56;;;;;;;18.00;12.27;;;19.00;66.20;;;;;;5070327;28;21016;-74
2024/01/28 10:55:22;;;;;;;15.90;10.23;;;19.20;66.00;;;;;;5070091;28;20782;-74
2024/01/28 10:57:48;;;;;;;14.80;10.83;;;19.00;65.40;;;;;;5070221;28;21060;-74
2024/01/28 11:00:16;;;;;;;11.57;9.90;;;18.80;66.50;;;;;;5052183;28;20436;-74
2024/01/28 11:02:42;;;;;;;17.83;10.60;;;18.80;65.70;;;;;;5070568;28;20487;-74
2024/01/28 11:05:10;;;;;;;12.30;9.40;;;18.70;66.90;;;;;;5071078;28;20438;-73
2024/01/28 11:07:36;;;;;;;14.40;9.37;;;18.90;67.60;;;;;;5069970;28;20807;-74
2024/01/28 11:10:05;;;;;;;12.80;10.27;;;19.20;66.90;;;;;;5070076;28;20424;-73
2024/01/28 11:12:30;;;;;;;10.03;8.50;;;19.30;66.70;;;;;;5069725;28;20467;-73
2024/01/28 11:15:00;;;;;;;13.33;8.43;;;19.30;67.60;;;;;;5069412;28;21281;-73
2024/01/28 11:17:33;;;;;;;10.90;8.33;;;19.80;66.90;;;;;;5069191;28;20430;-73
2024/01/28 11:20:10;;;;;;;11.13;8.93;;;19.70;66.30;;;;;;5069145;28;20422;-72
2024/01/28 11:22:55;;;;;;;15.30;9.73;;;20.00;66.80;;;;;;5069297;28;20415;-74
2024/01/28 11:25:25;;;;;;;12.57;9.20;;;19.70;64.70;;;;;;5069493;28;20420;-73
2024/01/28 11:27:57;;;;;;;11.73;8.50;;;19.70;64.10;;;;;;5051216;28;20567;-72
2024/01/28 11:30:23;;;;;;;10.00;8.53;;;19.40;65.50;;;;;;5069139;28;20420;-73
2024/01/28 11:32:52;;;;;;;14.10;9.27;;;18.90;65.60;;;;;;5069642;28;20468;-73
2024/01/28 11:35:17;;;;;;;10.73;8.30;;;18.80;65.70;;;;;;5069593;28;20935;-73
2024/01/28 11:37:52;;;;;;;15.10;9.23;;;18.70;65.80;;;;;;5069295;28;20437;-73
2024/01/28 11:40:25;;;;;;;10.27;7.93;;;18.80;66.60;;;;;;5070056;28;20167;-73
2024/01/28 11:42:55;;;;;;;13.17;8.27;;;18.70;65.40;;;;;;5069260;28;20447;-76
2024/01/28 11:45:21;;;;;;;13.63;8.93;;;18.70;66.60;;;;;;5069156;28;21112;-73
2024/01/28 11:47:47;;;;;;;10.63;8.13;;;18.90;67.30;;;;;;5068831;28;20426;-74
2024/01/28 11:50:13;;;;;;;10.27;7.23;;;19.00;65.80;;;;;;5068769;28;20425;-74
2024/01/28 11:52:38;;;;;;;10.17;7.20;;;18.60;64.00;;;;;;5069130;28;20218;-75
2024/01/28 11:55:15;;;;;;;10.27;7.50;;;18.70;66.00;;;;;;5069118;28;20182;-74
2024/01/28 11:57:43;;;;;;;8.87;7.97;;;18.80;66.40;;;;;;5069177;28;20181;-74
2024/01/28 12:00:13;;;;;;;10.40;7.70;;;18.50;64.70;;;;;;5069255;28;21252;-74
2024/01/28 12:02:40;;;;;;;12.83;7.37;;;18.00;64.60;;;;;;5068973;28;20426;-74
2024/01/28 12:05:07;;;;;;;12.30;9.10;;;17.70;65.60;;;;;;5051364;28;20860;-74
2024/01/28 12:07:35;;;;;;;10.73;8.40;;;17.50;66.70;;;;;;5068940;28;20497;-73
2024/01/28 12:10:12;;;;;;;10.20;9.00;;;17.20;67.00;;;;;;5068925;28;20480;-73
2024/01/28 12:12:40;;;;;;;14.77;9.43;;;16.70;65.50;;;;;;5068935;28;20479;-73
2024/01/28 12:15:07;;;;;;;10.30;8.30;;;16.60;69.10;;;;;;5068867;28;20416;-73
2024/01/28 12:17:37;;;;;;;10.93;8.40;;;16.20;68.90;;;;;;5069174;28;20415;-74
2024/01/28 12:20:04;;;;;;;10.87;7.63;;;16.00;70.40;;;;;;5069193;28;20922;-74
2024/01/28 12:22:40;;;;;;;11.23;7.60;;;15.90;68.90;;;;;;5069057;28;20427;-73
2024/01/28 12:25:08;;;;;;;12.70;7.50;;;15.50;69.40;;;;;;5034325;28;20833;-73
2024/01/28 12:27:33;;;;;;;24.03;13.30;;;15.10;71.00;;;;;;5069119;28;20429;-73
2024/01/28 12:29:59;;;;;;;14.30;9.77;;;14.80;70.20;;;;;;5069163;28;20929;-73
2024/01/28 12:32:25;;;;;;;14.40;10.23;;;14.30;73.40;;;;;;5069223;28;20207;-73
2024/01/28 12:34:50;;;;;;;16.20;9.13;;;13.90;75.70;;;;;;5071782;28;20676;-73